Etusivu
METAR-TAF:

METAR-TAF

Lentoasemat :

Starkville, Mississippi, Yhdysvallat

Leveyspiiri: 33-25-59N, Pituuspiiri: 088-50-55W, korkeus merenpinnasta: 101 m

Tämänhetkinen sää

Tämä raportti tehtiin 9 minuuttia sitten, kello 14.35 UTC
Tuuli 5 kn etelästä
Lämpötila 17°C
Kosteus 94%
Ilmanpaine 1013 hPa
Näkyvyys: 8.0 km
Hajanaisia pilviä 2800 ft:n korkeudessa
Hajonneita pilviä 3300 ft:n korkeudessa
Pilvistä 5000 ft:n korkeudessa

METAR: KSTF 251435Z AUTO 19005KT 5SM SCT028 BKN033 OVC050 17/16 A2991 RMK AO2 PWINO

Aika: 09:44 (14:44 UTC)


TAF: puuttuu

Säähavainnot ja -ennusteet yli 4000 lentoasemalta (METAR- ja TAF-raportit).

Käytössä olevat sääasemat on merkitty karttaan keltaisilla ja punaisilla pisteillä.

Aseta hiiri pisteen päälle nähdäksesi sääaseman nimen.

Klikkaa sitten nähdäksesi säähavainnot ja -ennusteet.

Kartan vaihtaminen: klikkaa mustalla rastilla varustettuja vihreitä pisteitä, niin voit zoomata sisään; viivalla varustettua vihreää pistettä, niin voit zoomata ulos tai vihreitä nuolia, niin pääset viereisille kartoille.


METAR-TAF: